Monday, July 23, 2018, 11:32 AM EDT
Back to Local

K40B, Clayton Lake

Location: Ashland, ME, United States Lat: 46.617
Local Time: 11:32 AM EDT (15:32 GMT) Lon: -69.533
Time Zone: US/Eastern Elev: 1030 ft

Show me the last for .
Show Decoded

2018-07-23 11:16 METAR K40B 231516Z AUTO VRB05G11KT 24/23 A3026 RMK AO1 SLP239 T02390226 51005
                 P0002 60002 =
2018-07-23 10:16 METAR K40B 231416Z AUTO 16006G13KT 130V190 22/21 A3027 RMK AO1 SLP240 T02200213
                 52007 =
2018-07-23 09:16 METAR K40B 231316Z AUTO 16008G14KT 130V190 22/21 A3025 RMK AO1 SLP236 T02210210
                 52006 =
2018-07-23 08:16 METAR K40B 231216Z AUTO VRB04KT 22/21 A3025 RMK AO1 SLP235 T02150209 10215 20206
                 51007 60002 70009 =
2018-07-23 07:16 METAR K40B 231116Z AUTO 00000KT 21/21 A3025 RMK AO1 SLP235 T02090207 52010 P0002
                 =
2018-07-23 06:16 METAR K40B 231016Z AUTO VRB04KT 21/20 A3023 RMK AO1 SLP231 T02060204 52008 =
2018-07-23 05:16 METAR K40B 230916Z AUTO VRB05KT 21/20 A3022 RMK AO1 SLP228 T02080204 52008 =
2018-07-23 04:16 METAR K40B 230816Z AUTO VRB04KT 21/20 A3022 RMK AO1 SLP225 T02080204 53005 =
2018-07-23 03:16 METAR K40B 230716Z AUTO 18007KT 21/20 A3021 RMK AO1 SLP222 T02090205 55003 =
2018-07-23 02:16 METAR K40B 230616Z AUTO 18008G14KT 21/21 A3020 RMK AO1 SLP218 T02120207 10214
                 20181 55008 60005 =
2018-07-23 01:16 METAR K40B 230516Z AUTO VRB06KT 21/21 A3020 RMK AO1 SLP218 T02120208 402820086
                 57008 =
2018-07-23 00:16 METAR K40B 230416Z AUTO VRB03KT 21/21 A3022 RMK AO1 SLP223 T02090207 57006 =
2018-07-22 23:16 METAR K40B 230316Z AUTO VRB03KT 20/20 A3022 RMK AO1 SLP224 T02010201 58004 P0003
                 60005 =
2018-07-22 22:16 METAR K40B 230216Z AUTO VRB03KT 19/19 A3023 RMK AO1 SLP225 T01890188 50000 P0001
                 =
2018-07-22 21:16 METAR K40B 230116Z AUTO 00000KT 18/18 A3023 RMK AO1 SLP227 T01840182 52002 P0001
                 =
2018-07-22 20:16 METAR K40B 230016Z AUTO 00000KT 19/18 A3023 RMK AO1 SLP226 T01860183 10276 20186
                 54001 P0002 60002 =
2018-07-22 19:16 METAR K40B 222316Z AUTO 00000KT 19/16 A3023 RMK AO1 SLP224 T01910160 50000 P0000
                 =
2018-07-22 18:16 METAR K40B 222216Z AUTO 00000KT 20/14 A3023 RMK AO1 SLP225 T02040143 50004 =
2018-07-22 17:16 METAR K40B 222116Z AUTO VRB03KT 22/11 A3023 RMK AO1 SLP229 T02220112 52011 =
2018-07-22 16:16 METAR K40B 222016Z AUTO VRB05KT 24/10 A3023 RMK AO1 SLP228 T02450103 52010 =
2018-07-22 15:16 METAR K40B 221916Z AUTO VRB02KT 25/12 A3022 RMK AO1 SLP226 T02480120 53004 =
2018-07-22 14:16 METAR K40B 221816Z AUTO VRB05KT 27/09 A3020 RMK AO1 SLP222 T02750087 10282 20190
                 57003 =
2018-07-22 13:16 METAR K40B 221716Z AUTO 14006G13KT 060V180 27/08 A3020 RMK AO1 SLP222 T02720078
                 57004 =
2018-07-22 12:16 METAR K40B 221616Z AUTO 16008G14KT 130V190 26/08 A3020 RMK AO1 SLP227 T02630083
                 54001 =

Support USWX by starting your Amazon purchase here.